Time;durP1;ratioP1;P1;durP2;ratioP2;P2;SDS_P1;SDS_P2;PMS_P1;PMS_P2;Temp;Humidity;BMP_temperature;BMP_pressure;BME280_temperature;BME280_humidity;BME280_pressure;Samples;Min_cycle;Max_cycle;Signal;HPM_P1;HPM_P2
2021/12/03 00:01:13;;;;;;;0.00;0.00;;;-1.20;99.90;;;;;;5031867;28;20513;-65
2021/12/03 00:03:39;;;;;;;0.00;0.00;;;-1.10;99.90;;;;;;5031710;28;20389;-65
2021/12/03 00:06:05;;;;;;;0.00;0.00;;;-1.10;99.90;;;;;;5031871;28;20112;-65
2021/12/03 00:08:31;;;;;;;0.00;0.00;;;-1.10;99.90;;;;;;5031994;28;20500;-65
2021/12/03 00:11:00;;;;;;;0.00;0.00;;;-1.00;99.90;;;;;;5031289;28;20047;-65
2021/12/03 00:13:28;;;;;;;0.00;0.00;;;-1.00;99.90;;;;;;5051183;28;20111;-65
2021/12/03 00:15:56;;;;;;;0.00;0.00;;;-1.00;99.90;;;;;;5036655;28;20048;-65
2021/12/03 00:18:22;;;;;;;0.00;0.00;;;-0.90;99.90;;;;;;5031982;28;20022;-65
2021/12/03 00:20:49;;;;;;;0.00;0.00;;;-0.90;99.90;;;;;;5031568;28;20051;-65
2021/12/03 00:23:15;;;;;;;0.00;0.00;;;-0.90;99.90;;;;;;5031540;28;20033;-65
2021/12/03 00:25:41;;;;;;;0.00;0.00;;;-0.80;99.90;;;;;;5031233;28;20060;-65
2021/12/03 00:28:07;;;;;;;0.00;0.00;;;-0.80;99.90;;;;;;5031821;28;20108;-65
2021/12/03 00:30:34;;;;;;;0.00;0.00;;;-0.70;99.90;;;;;;5030945;28;20034;-65
2021/12/03 00:33:00;;;;;;;0.00;0.00;;;-0.70;99.90;;;;;;5031834;28;20384;-65
2021/12/03 00:35:26;;;;;;;0.00;0.00;;;-0.70;99.90;;;;;;5031287;28;20030;-65
2021/12/03 00:37:52;;;;;;;0.00;0.00;;;-0.70;99.90;;;;;;5032018;28;20385;-65
2021/12/03 00:40:23;;;;;;;0.00;0.00;;;-0.70;99.90;;;;;;5030818;28;20918;-65
2021/12/03 00:42:49;;;;;;;0.00;0.00;;;-0.60;99.90;;;;;;5031707;28;20487;-65
2021/12/03 00:45:15;;;;;;;0.00;0.00;;;-0.60;99.90;;;;;;5031365;28;20124;-65
2021/12/03 00:47:42;;;;;;;0.00;0.00;;;-0.60;99.90;;;;;;5032085;28;20061;-65
2021/12/03 00:50:09;;;;;;;0.00;0.00;;;-0.60;99.90;;;;;;5031139;28;20030;-65
2021/12/03 00:52:35;;;;;;;0.00;0.00;;;-0.60;99.90;;;;;;5031573;28;20030;-65
2021/12/03 00:55:02;;;;;;;0.00;0.00;;;-0.60;99.90;;;;;;5036928;28;20104;-65
2021/12/03 00:57:27;;;;;;;0.00;0.00;;;-0.60;99.90;;;;;;5031429;28;20037;-65
2021/12/03 00:59:53;;;;;;;0.00;0.00;;;-0.60;99.90;;;;;;5031370;28;20025;-65
2021/12/03 01:02:18;;;;;;;0.00;0.00;;;-0.60;99.90;;;;;;5030658;28;20030;-65
2021/12/03 01:04:46;;;;;;;0.00;0.00;;;-0.50;99.90;;;;;;5031086;28;20026;-65
2021/12/03 01:07:13;;;;;;;0.00;0.00;;;-0.60;99.90;;;;;;5031704;28;20484;-65
2021/12/03 01:09:39;;;;;;;0.00;0.00;;;-0.60;99.90;;;;;;5031791;28;20026;-65
2021/12/03 01:12:05;;;;;;;0.00;0.00;;;-0.60;99.90;;;;;;5030243;28;20040;-65
2021/12/03 01:14:30;;;;;;;0.00;0.00;;;-0.60;99.90;;;;;;5031378;28;20530;-65
2021/12/03 01:16:56;;;;;;;0.00;0.00;;;-0.60;99.90;;;;;;5031789;28;20022;-65
2021/12/03 01:19:22;;;;;;;0.00;0.00;;;-0.60;99.90;;;;;;5032727;28;20104;-65
2021/12/03 01:21:47;;;;;;;0.00;0.00;;;-0.70;99.90;;;;;;5033719;28;20041;-65
2021/12/03 01:24:13;;;;;;;0.00;0.00;;;-0.70;99.90;;;;;;5034596;28;20030;-65
2021/12/03 01:26:40;;;;;;;0.00;0.00;;;-0.70;99.90;;;;;;5035225;28;20038;-65
2021/12/03 01:29:06;;;;;;;0.00;0.00;;;-0.70;99.90;;;;;;5034766;28;20120;-65
2021/12/03 01:31:32;;;;;;;0.00;0.00;;;-0.70;99.90;;;;;;5033453;28;20091;-65
2021/12/03 01:33:58;;;;;;;0.00;0.00;;;-0.70;99.90;;;;;;5034465;28;20113;-65
2021/12/03 01:36:24;;;;;;;0.00;0.00;;;-0.70;99.90;;;;;;5034902;28;20116;-65
2021/12/03 01:38:49;;;;;;;0.00;0.00;;;-0.60;99.90;;;;;;5034678;28;20404;-65
2021/12/03 01:41:15;;;;;;;0.00;0.00;;;-0.70;99.90;;;;;;5043648;28;20044;-65
2021/12/03 01:43:42;;;;;;;0.00;0.00;;;-0.60;99.90;;;;;;5035882;28;20064;-65
2021/12/03 01:46:09;;;;;;;0.00;0.00;;;-0.70;99.90;;;;;;5036295;28;20029;-65
2021/12/03 01:48:37;;;;;;;0.00;0.00;;;-0.70;99.90;;;;;;5035026;28;20075;-65
2021/12/03 01:51:03;;;;;;;0.00;0.00;;;-0.70;99.90;;;;;;5033842;28;20499;-65
2021/12/03 01:53:31;;;;;;;0.00;0.00;;;-0.80;99.90;;;;;;5035516;28;20034;-65
2021/12/03 01:56:00;;;;;;;0.00;0.00;;;-0.80;99.90;;;;;;5034974;28;20037;-65
2021/12/03 01:58:25;;;;;;;0.00;0.00;;;-0.80;99.90;;;;;;5043566;28;20108;-65
2021/12/03 02:00:58;;;;;;;0.00;0.00;;;-0.70;99.90;;;;;;5033822;28;20112;-65
2021/12/03 02:03:27;;;;;;;0.00;0.00;;;-0.70;99.90;;;;;;5034675;28;20034;-65
2021/12/03 02:05:53;;;;;;;0.00;0.00;;;-0.70;99.90;;;;;;5034425;28;20052;-65
2021/12/03 02:08:19;;;;;;;0.00;0.00;;;-0.70;99.90;;;;;;5034350;28;20034;-65
2021/12/03 02:10:45;;;;;;;0.00;0.00;;;-0.70;99.90;;;;;;5033587;28;20049;-65
2021/12/03 02:13:13;;;;;;;0.00;0.00;;;-0.80;99.90;;;;;;5034557;28;20025;-65
2021/12/03 02:15:40;;;;;;;0.00;0.00;;;-0.70;99.90;;;;;;5034165;28;20044;-65
2021/12/03 02:18:06;;;;;;;0.00;0.00;;;-0.70;99.90;;;;;;5033760;28;20087;-65
2021/12/03 02:20:32;;;;;;;0.00;0.00;;;-0.80;99.90;;;;;;5033738;28;20164;-65
2021/12/03 02:22:58;;;;;;;0.00;0.00;;;-0.70;99.90;;;;;;5034102;28;20128;-65
2021/12/03 02:25:26;;;;;;;0.00;0.00;;;-0.70;99.90;;;;;;5034150;28;20103;-65
2021/12/03 02:27:55;;;;;;;0.00;0.00;;;-0.80;99.90;;;;;;5034296;28;20116;-65
2021/12/03 02:30:22;;;;;;;0.00;0.00;;;-0.70;99.90;;;;;;5032727;28;20050;-65
2021/12/03 02:32:49;;;;;;;0.00;0.00;;;-0.70;99.90;;;;;;5033823;28;20037;-65
2021/12/03 02:35:19;;;;;;;0.00;0.00;;;-0.80;99.90;;;;;;5034001;28;20030;-65
2021/12/03 02:37:46;;;;;;;0.00;0.00;;;-0.70;99.90;;;;;;5033938;28;20029;-65
2021/12/03 02:40:14;;;;;;;0.00;0.00;;;-0.70;99.90;;;;;;5032595;28;20437;-65
2021/12/03 02:42:40;;;;;;;0.00;0.00;;;-0.70;99.90;;;;;;5034037;28;20076;-65
2021/12/03 02:45:06;;;;;;;0.00;0.00;;;-0.70;99.90;;;;;;5032842;28;20041;-65
2021/12/03 02:47:32;;;;;;;0.00;0.00;;;-0.70;99.90;;;;;;5033919;28;20033;-65
2021/12/03 02:49:57;;;;;;;0.00;0.00;;;-0.70;99.90;;;;;;5032939;28;20030;-65
2021/12/03 02:52:23;;;;;;;0.00;0.00;;;-0.60;99.90;;;;;;5033254;28;20040;-65
2021/12/03 02:54:49;;;;;;;0.00;0.00;;;-0.60;99.90;;;;;;5033813;28;20069;-65
2021/12/03 02:57:15;;;;;;;0.00;0.00;;;-0.60;99.90;;;;;;5033046;28;20025;-65
2021/12/03 02:59:41;;;;;;;0.00;0.00;;;-0.70;99.90;;;;;;5033711;28;20026;-65
2021/12/03 03:02:07;;;;;;;0.00;0.00;;;-0.60;99.90;;;;;;5032112;28;20423;-65
2021/12/03 03:04:32;;;;;;;0.00;0.00;;;-0.60;99.90;;;;;;5032959;28;20083;-65
2021/12/03 03:06:59;;;;;;;0.00;0.00;;;-0.60;99.90;;;;;;5033636;28;20030;-65
2021/12/03 03:09:25;;;;;;;0.00;0.00;;;-0.60;99.90;;;;;;5033246;28;20026;-65
2021/12/03 03:11:51;;;;;;;0.00;0.00;;;-0.50;99.90;;;;;;5032710;28;20033;-65
2021/12/03 03:14:17;;;;;;;0.00;0.00;;;-0.60;99.90;;;;;;5033044;28;20048;-65
2021/12/03 03:16:43;;;;;;;0.00;0.00;;;-0.50;99.90;;;;;;5032903;28;20084;-65
2021/12/03 03:19:14;;;;;;;0.00;0.00;;;-0.50;99.90;;;;;;5032649;28;20396;-65
2021/12/03 03:21:40;;;;;;;0.00;0.00;;;-0.50;99.90;;;;;;5032760;28;20044;-65
2021/12/03 03:24:07;;;;;;;0.00;0.00;;;-0.50;99.90;;;;;;5033047;28;20026;-65
2021/12/03 03:26:38;;;;;;;0.00;0.00;;;-0.50;99.90;;;;;;5033207;28;20025;-65
2021/12/03 03:29:06;;;;;;;0.00;0.00;;;-0.50;99.90;;;;;;5029384;28;20044;-65
2021/12/03 03:31:37;;;;;;;0.00;0.00;;;-0.50;99.90;;;;;;5042565;28;20105;-65
2021/12/03 03:34:04;;;;;;;0.00;0.00;;;-0.40;99.90;;;;;;5033138;28;20145;-65
2021/12/03 03:36:35;;;;;;;0.00;0.00;;;-0.40;99.90;;;;;;5032973;28;20393;-65
2021/12/03 03:39:02;;;;;;;0.00;0.00;;;-0.40;99.90;;;;;;5032081;28;20045;-65
2021/12/03 03:41:28;;;;;;;0.00;0.00;;;-0.40;99.90;;;;;;5029381;28;20026;-65
2021/12/03 03:43:53;;;;;;;0.00;0.00;;;-0.40;99.90;;;;;;5032050;28;20105;-65
2021/12/03 03:46:19;;;;;;;0.00;0.00;;;-0.40;99.90;;;;;;5031195;28;20052;-66
2021/12/03 03:48:45;;;;;;;0.00;0.00;;;-0.40;99.90;;;;;;5031980;28;20036;-65
2021/12/03 03:51:11;;;;;;;0.00;0.00;;;-0.40;99.90;;;;;;5031696;28;20049;-65
2021/12/03 03:53:38;;;;;;;0.00;0.00;;;-0.40;99.90;;;;;;5033734;28;20044;-65
2021/12/03 03:56:05;;;;;;;0.00;0.00;;;-0.40;99.90;;;;;;5032528;28;20041;-65
2021/12/03 03:58:31;;;;;;;0.00;0.00;;;-0.40;99.90;;;;;;5032480;28;20056;-65
2021/12/03 04:00:56;;;;;;;0.00;0.00;;;-0.40;99.90;;;;;;5031580;28;20476;-65
2021/12/03 04:03:22;;;;;;;0.00;0.00;;;-0.30;99.90;;;;;;5032672;28;20029;-65
2021/12/03 04:05:48;;;;;;;0.00;0.00;;;-0.30;99.90;;;;;;5032523;28;20025;-65
2021/12/03 04:08:13;;;;;;;0.00;0.00;;;-0.30;99.90;;;;;;5032480;28;20095;-65
2021/12/03 04:10:39;;;;;;;0.00;0.00;;;-0.30;99.90;;;;;;5031163;28;20045;-65
2021/12/03 04:13:04;;;;;;;0.00;0.00;;;-0.20;99.90;;;;;;5032410;28;20361;-65
2021/12/03 04:15:30;;;;;;;0.00;0.00;;;-0.20;99.90;;;;;;5031745;28;20025;-65
2021/12/03 04:17:56;;;;;;;0.00;0.00;;;-0.20;99.90;;;;;;5031557;28;20037;-65
2021/12/03 04:20:21;;;;;;;0.00;0.00;;;-0.20;99.90;;;;;;5031503;28;20040;-65
2021/12/03 04:22:47;;;;;;;0.00;0.00;;;-0.20;99.90;;;;;;5031496;28;20026;-65
2021/12/03 04:25:18;;;;;;;0.00;0.00;;;-0.20;99.90;;;;;;5032408;28;20094;-65
2021/12/03 04:27:45;;;;;;;0.00;0.00;;;-0.20;99.90;;;;;;5031987;28;20029;-65
2021/12/03 04:30:15;;;;;;;0.00;0.00;;;-0.20;99.90;;;;;;5030817;28;20037;-65
2021/12/03 04:32:41;;;;;;;0.00;0.00;;;-0.30;99.90;;;;;;5047321;28;20039;-65
2021/12/03 04:35:08;;;;;;;0.00;0.00;;;-0.30;99.90;;;;;;5036478;28;20034;-65
2021/12/03 04:37:33;;;;;;;0.00;0.00;;;-0.20;99.90;;;;;;5032053;28;20026;-66
2021/12/03 04:39:59;;;;;;;0.00;0.00;;;-0.30;99.90;;;;;;5031584;28;20490;-65
2021/12/03 04:42:25;;;;;;;0.00;0.00;;;-0.30;99.90;;;;;;5031573;28;20536;-65
2021/12/03 04:44:50;;;;;;;0.00;0.00;;;-0.30;99.90;;;;;;5031016;28;20029;-65
2021/12/03 04:47:16;;;;;;;0.00;0.00;;;-0.30;99.90;;;;;;5031191;28;20048;-65
2021/12/03 04:49:42;;;;;;;0.00;0.00;;;-0.30;99.90;;;;;;5031595;28;20457;-65
2021/12/03 04:52:07;;;;;;;0.00;0.00;;;-0.30;99.90;;;;;;5032039;28;20030;-65
2021/12/03 04:54:34;;;;;;;0.00;0.00;;;-0.30;99.90;;;;;;5034744;28;20022;-65
2021/12/03 04:56:59;;;;;;;0.00;0.00;;;-0.30;99.90;;;;;;5035806;28;20026;-65
2021/12/03 04:59:25;;;;;;;0.00;0.00;;;-0.30;99.90;;;;;;5035605;28;20047;-65
2021/12/03 05:01:54;;;;;;;0.00;0.00;;;-0.30;99.90;;;;;;5035375;28;20026;-65
2021/12/03 05:04:20;;;;;;;0.00;0.00;;;-0.30;99.90;;;;;;5035553;28;20037;-65
2021/12/03 05:09:20;;;;;;;0.00;0.00;;;-0.30;99.90;;;;;;5035583;28;20029;-65
2021/12/03 05:11:46;;;;;;;0.00;0.00;;;-0.30;99.90;;;;;;5033964;28;20046;-65
2021/12/03 05:14:12;;;;;;;0.00;0.00;;;-0.30;99.90;;;;;;5035625;28;20388;-65
2021/12/03 05:16:38;;;;;;;0.00;0.00;;;-0.30;99.90;;;;;;5035583;28;20041;-65
2021/12/03 05:19:04;;;;;;;0.00;0.00;;;-0.30;99.90;;;;;;5035235;28;20025;-65
2021/12/03 05:21:29;;;;;;;0.00;0.00;;;-0.20;99.90;;;;;;5034357;28;20053;-65
2021/12/03 05:23:55;;;;;;;0.00;0.00;;;-0.20;99.90;;;;;;5034946;28;20483;-65
2021/12/03 05:26:22;;;;;;;0.00;0.00;;;-0.20;99.90;;;;;;5034651;28;20449;-65
2021/12/03 05:28:47;;;;;;;0.00;0.00;;;-0.20;99.90;;;;;;5035569;28;20457;-65
2021/12/03 05:31:13;;;;;;;0.00;0.00;;;-0.20;99.90;;;;;;5033372;28;20038;-65
2021/12/03 05:33:38;;;;;;;0.00;0.00;;;-0.20;99.90;;;;;;5045934;28;20033;-65
2021/12/03 05:36:04;;;;;;;0.00;0.00;;;-0.20;99.90;;;;;;5037232;28;20067;-65
2021/12/03 05:38:30;;;;;;;0.00;0.00;;;-0.10;99.90;;;;;;5035200;28;20034;-65
2021/12/03 05:40:56;;;;;;;0.00;0.00;;;-0.20;99.90;;;;;;5033852;28;20369;-65
2021/12/03 05:43:21;;;;;;;0.00;0.00;;;-0.10;99.90;;;;;;5034998;28;20389;-65
2021/12/03 05:45:47;;;;;;;0.00;0.00;;;-0.10;99.90;;;;;;5034551;28;20013;-65
2021/12/03 05:48:13;;;;;;;0.00;0.00;;;-0.10;99.90;;;;;;5035121;28;20029;-65
2021/12/03 05:50:40;;;;;;;0.00;0.00;;;-0.10;99.90;;;;;;5033801;28;20041;-65
2021/12/03 05:53:05;;;;;;;0.00;0.00;;;-0.20;99.90;;;;;;5034874;28;20033;-65
2021/12/03 05:55:31;;;;;;;0.00;0.00;;;-0.10;99.90;;;;;;5034525;28;20453;-65
2021/12/03 05:57:58;;;;;;;0.00;0.00;;;-0.10;99.90;;;;;;5034982;28;20029;-65
2021/12/03 06:00:30;;;;;;;0.00;0.00;;;0.00;99.90;;;;;;5034274;28;20037;-65
2021/12/03 06:02:57;;;;;;;0.00;0.00;;;0.00;99.90;;;;;;5034928;28;20029;-65
2021/12/03 06:05:24;;;;;;;0.00;0.00;;;0.00;99.90;;;;;;5033943;28;20064;-65
2021/12/03 06:07:50;;;;;;;0.00;0.00;;;0.00;99.90;;;;;;5034378;28;20112;-65
2021/12/03 06:10:16;;;;;;;0.00;0.00;;;0.00;99.90;;;;;;5033861;28;20028;-65
2021/12/03 06:12:42;;;;;;;0.00;0.00;;;0.10;99.90;;;;;;5035034;28;20370;-65
2021/12/03 06:15:08;;;;;;;0.00;0.00;;;0.10;99.90;;;;;;5034617;28;20049;-65
2021/12/03 06:17:34;;;;;;;0.00;0.00;;;0.10;99.90;;;;;;5034586;28;20029;-65
2021/12/03 06:20:00;;;;;;;0.00;0.00;;;0.10;99.90;;;;;;5034181;28;20021;-65
2021/12/03 06:22:25;;;;;;;0.00;0.00;;;0.20;99.90;;;;;;5034020;28;20026;-65
2021/12/03 06:24:51;;;;;;;0.00;0.00;;;0.20;99.90;;;;;;5033896;28;20633;-65
2021/12/03 06:27:16;;;;;;;0.00;0.00;;;0.20;99.90;;;;;;5034477;28;20021;-65
2021/12/03 06:29:42;;;;;;;0.00;0.00;;;0.20;99.90;;;;;;5034114;28;20104;-65
2021/12/03 06:32:09;;;;;;;0.00;0.00;;;0.30;99.90;;;;;;5033280;28;20041;-65
2021/12/03 06:34:36;;;;;;;0.00;0.00;;;0.30;99.90;;;;;;5036644;28;20029;-65
2021/12/03 06:37:02;;;;;;;0.00;0.00;;;0.30;99.90;;;;;;5033863;28;20492;-65
2021/12/03 06:39:27;;;;;;;0.00;0.00;;;0.40;99.90;;;;;;5033975;28;20609;-64
2021/12/03 06:41:53;;;;;;;0.00;0.00;;;0.40;99.90;;;;;;5033511;28;20124;-64
2021/12/03 06:44:18;;;;;;;0.00;0.00;;;0.40;99.90;;;;;;5034079;28;20036;-64
2021/12/03 06:46:44;;;;;;;0.00;0.00;;;0.40;99.90;;;;;;5034015;28;20369;-64
2021/12/03 06:49:10;;;;;;;0.00;0.00;;;0.40;99.90;;;;;;5051990;28;20087;-64
2021/12/03 06:51:42;;;;;;;0.00;0.00;;;0.30;99.90;;;;;;5052773;28;20036;-64
2021/12/03 06:54:10;;;;;;;0.00;0.00;;;0.40;99.90;;;;;;5053907;28;20048;-64
2021/12/03 06:56:48;;;;;;;0.00;0.00;;;0.40;99.90;;;;;;5053403;28;20017;-64
2021/12/03 06:59:17;;;;;;;0.00;0.00;;;0.50;99.90;;;;;;5053568;28;20033;-64
2021/12/03 07:01:43;;;;;;;0.00;0.00;;;0.50;99.90;;;;;;5052874;28;20040;-64
2021/12/03 07:04:10;;;;;;;0.00;0.00;;;0.50;99.90;;;;;;5053330;28;20021;-64
2021/12/03 07:06:35;;;;;;;0.00;0.00;;;0.50;99.90;;;;;;5053596;28;20090;-64
2021/12/03 07:09:01;;;;;;;0.00;0.00;;;0.50;99.90;;;;;;5053485;28;20025;-64
2021/12/03 07:11:27;;;;;;;0.00;0.00;;;0.40;99.90;;;;;;5052567;28;20471;-64
2021/12/03 07:13:52;;;;;;;0.00;0.00;;;0.40;99.90;;;;;;5053395;28;20075;-64
2021/12/03 07:16:18;;;;;;;0.00;0.00;;;0.40;99.90;;;;;;5052726;28;20039;-64
2021/12/03 07:18:44;;;;;;;0.00;0.00;;;0.50;99.90;;;;;;5052634;28;20025;-64
2021/12/03 07:21:10;;;;;;;0.00;0.00;;;0.60;99.90;;;;;;5034966;28;20503;-64
2021/12/03 07:23:36;;;;;;;0.00;0.00;;;0.60;99.90;;;;;;5033179;28;20037;-64
2021/12/03 07:26:02;;;;;;;0.00;0.00;;;0.70;99.90;;;;;;5032950;28;20033;-64
2021/12/03 07:28:29;;;;;;;0.00;0.00;;;0.70;99.90;;;;;;5033181;28;20036;-64
2021/12/03 07:30:55;;;;;;;0.00;0.00;;;0.80;99.90;;;;;;5032348;28;20116;-64
2021/12/03 07:33:21;;;;;;;0.00;0.00;;;0.70;99.90;;;;;;5041037;28;20500;-65
2021/12/03 07:35:47;;;;;;;0.00;0.00;;;0.80;99.90;;;;;;5036062;28;20026;-65
2021/12/03 07:38:15;;;;;;;0.00;0.00;;;0.80;99.90;;;;;;5033136;28;20087;-65
2021/12/03 07:40:42;;;;;;;0.00;0.00;;;0.80;99.90;;;;;;5031964;28;20041;-65
2021/12/03 07:43:08;;;;;;;0.00;0.00;;;0.90;99.90;;;;;;5032890;28;20030;-65
2021/12/03 07:45:34;;;;;;;0.00;0.00;;;0.90;99.90;;;;;;5047589;28;20021;-65
2021/12/03 07:47:59;;;;;;;0.00;0.00;;;1.00;99.90;;;;;;5052561;28;20033;-65
2021/12/03 07:50:25;;;;;;;0.00;0.00;;;1.10;99.90;;;;;;5051831;28;20109;-65
2021/12/03 07:52:51;;;;;;;0.00;0.00;;;1.10;99.90;;;;;;5052550;28;20029;-65
2021/12/03 07:55:16;;;;;;;0.00;0.00;;;1.20;99.90;;;;;;5052525;28;20154;-65
2021/12/03 07:57:42;;;;;;;0.00;0.00;;;1.20;99.90;;;;;;5052601;28;20029;-66
2021/12/03 08:00:09;;;;;;;0.00;0.00;;;1.30;99.90;;;;;;5051809;28;20039;-66
2021/12/03 08:02:34;;;;;;;0.00;0.00;;;1.30;99.90;;;;;;5052209;28;20507;-66
2021/12/03 08:05:00;;;;;;;0.00;0.00;;;1.40;99.90;;;;;;5052559;28;20024;-66
2021/12/03 08:07:26;;;;;;;0.00;0.00;;;1.40;99.90;;;;;;5051979;28;20051;-66
2021/12/03 08:09:51;;;;;;;0.00;0.00;;;1.40;99.90;;;;;;5032316;28;20034;-66
2021/12/03 08:12:17;;;;;;;0.00;0.00;;;1.50;99.90;;;;;;5031640;28;20038;-67
2021/12/03 08:14:42;;;;;;;0.00;0.00;;;1.50;99.90;;;;;;5047301;28;20025;-67
2021/12/03 08:17:08;;;;;;;0.00;0.00;;;1.50;99.90;;;;;;5052019;28;20029;-67
2021/12/03 08:19:34;;;;;;;0.00;0.00;;;1.60;99.90;;;;;;5047613;28;20042;-67
2021/12/03 08:22:00;;;;;;;0.00;0.00;;;1.60;99.90;;;;;;5031760;28;20469;-67
2021/12/03 08:24:25;;;;;;;0.00;0.00;;;1.60;99.90;;;;;;5032227;28;20033;-68
2021/12/03 08:26:51;;;;;;;0.00;0.00;;;1.70;99.90;;;;;;5032279;28;20435;-67
2021/12/03 08:29:16;;;;;;;0.00;0.00;;;1.70;99.90;;;;;;5031812;28;20026;-68
2021/12/03 08:31:42;;;;;;;0.00;0.00;;;1.70;99.90;;;;;;5031225;28;20415;-69
2021/12/03 08:34:08;;;;;;;0.00;0.00;;;1.80;99.90;;;;;;5043710;28;20386;-68
2021/12/03 08:36:33;;;;;;;0.00;0.00;;;1.80;99.90;;;;;;5032274;28;20025;-68
2021/12/03 08:38:59;;;;;;;0.00;0.00;;;1.80;99.90;;;;;;5032072;28;20350;-68
2021/12/03 08:41:25;;;;;;;0.00;0.00;;;1.80;99.90;;;;;;5031446;28;20121;-68
2021/12/03 08:43:51;;;;;;;0.00;0.00;;;1.80;99.90;;;;;;5031955;28;20036;-70
2021/12/03 08:46:28;;;;;;;0.00;0.00;;;1.80;99.90;;;;;;5031850;28;20116;-70
2021/12/03 08:49:00;;;;;;;0.00;0.00;;;1.80;99.90;;;;;;5032126;28;20025;-69
2021/12/03 08:51:33;;;;;;;0.00;0.00;;;1.90;99.90;;;;;;5031372;28;20041;-70
2021/12/03 08:56:43;;;;;;;0.00;0.00;;;1.80;99.90;;;;;;5032016;28;20044;-70
2021/12/03 08:59:09;;;;;;;0.00;0.00;;;1.90;99.90;;;;;;5032181;28;20022;-70
2021/12/03 09:01:34;;;;;;;0.00;0.00;;;1.90;99.90;;;;;;5030965;28;20037;-71
2021/12/03 09:04:00;;;;;;;0.00;0.00;;;2.00;99.90;;;;;;5032029;28;20117;-70
2021/12/03 09:06:26;;;;;;;0.00;0.00;;;2.00;99.90;;;;;;5031805;28;20113;-71
2021/12/03 09:08:52;;;;;;;0.00;0.00;;;2.00;99.90;;;;;;5031868;28;20037;-71
2021/12/03 09:11:18;;;;;;;0.00;0.00;;;2.00;99.90;;;;;;5030706;28;20037;-71
2021/12/03 09:13:46;;;;;;;0.00;0.00;;;2.10;99.90;;;;;;5032045;28;20484;-70
2021/12/03 09:16:16;;;;;;;0.00;0.00;;;2.10;99.90;;;;;;5031847;28;20127;-70
2021/12/03 09:18:44;;;;;;;0.00;0.00;;;2.10;99.90;;;;;;5032015;28;20044;-69
2021/12/03 09:21:17;;;;;;;0.00;0.00;;;2.20;99.90;;;;;;5030924;28;20038;-70
2021/12/03 09:26:16;;;;;;;0.00;0.00;;;2.20;99.90;;;;;;5031399;28;20037;-69
2021/12/03 09:28:49;;;;;;;0.00;0.00;;;2.20;99.90;;;;;;5030289;28;20030;-69
2021/12/03 09:31:16;;;;;;;0.00;0.00;;;2.20;99.90;;;;;;5029630;28;20408;-69
2021/12/03 09:33:45;;;;;;;0.00;0.00;;;2.20;99.90;;;;;;5032067;28;20030;-69
2021/12/03 09:36:11;;;;;;;0.00;0.00;;;2.20;99.90;;;;;;5028150;28;20025;-69
2021/12/03 09:38:38;;;;;;;0.00;0.00;;;2.20;99.90;;;;;;5041346;28;20033;-69
2021/12/03 09:41:09;;;;;;;0.00;0.00;;;2.30;99.90;;;;;;5052028;28;20028;-69
2021/12/03 09:43:37;;;;;;;0.00;0.00;;;2.30;99.90;;;;;;5055092;28;20028;-69
2021/12/03 09:46:14;;;;;;;0.00;0.00;;;2.30;99.90;;;;;;5055109;28;20052;-69
2021/12/03 09:51:28;;;;;;;0.00;0.00;;;2.40;99.90;;;;;;5054596;28;20431;-68
2021/12/03 09:54:23;;;;;;;0.00;0.00;;;2.40;99.90;;;;;;5055082;28;20025;-68
2021/12/03 09:56:51;;;;;;;0.00;0.00;;;2.40;99.90;;;;;;5054922;28;20116;-69
2021/12/03 09:59:42;;;;;;;0.00;0.00;;;2.50;99.90;;;;;;5054494;28;20021;-69
2021/12/03 10:04:46;;;;;;;0.00;0.00;;;2.50;99.90;;;;;;5054717;28;20029;-69
2021/12/03 10:12:47;;;;;;;0.00;0.00;;;2.70;99.90;;;;;;5054878;28;20100;-69
2021/12/03 10:15:26;;;;;;;0.00;0.00;;;2.70;99.90;;;;;;5054483;28;20078;-69
2021/12/03 10:20:27;;;;;;;0.00;0.00;;;2.70;99.90;;;;;;5043275;28;20495;-69
2021/12/03 10:36:31;;;;;;;0.00;0.00;;;3.00;99.90;;;;;;5032705;28;20033;-69
2021/12/03 10:42:19;;;;;;;0.00;0.00;;;3.20;99.90;;;;;;5033566;28;20069;-69
2021/12/03 10:44:52;;;;;;;0.00;0.00;;;3.20;99.90;;;;;;5033789;28;20034;-69
2021/12/03 10:50:10;;;;;;;0.00;0.00;;;3.30;99.90;;;;;;5025914;28;20033;-68
2021/12/03 11:01:58;;;;;;;0.00;0.00;;;3.40;99.90;;;;;;5033284;28;20029;-68
2021/12/03 11:07:03;;;;;;;0.00;0.00;;;3.40;99.90;;;;;;5033664;28;20107;-69
2021/12/03 11:28:50;;;;;;;0.00;0.00;;;3.40;99.90;;;;;;5033279;28;20064;-69
2021/12/03 11:34:36;;;;;;;0.00;0.00;;;3.40;99.90;;;;;;5033509;28;20079;-68
2021/12/03 11:39:40;;;;;;;0.00;0.00;;;3.50;99.90;;;;;;5052783;28;20058;-68
2021/12/03 12:24:26;;;;;;;;;;;3.10;99.90;;;;;;5032781;28;20076;-68
2021/12/03 12:44:25;;;;;;;0.00;0.00;;;3.30;99.90;;;;;;5032222;28;20036;-68
2021/12/03 13:01:06;;;;;;;0.00;0.00;;;3.30;99.90;;;;;;5031228;28;20103;-68
2021/12/03 13:04:48;;;;;;;0.00;0.00;;;3.40;99.90;;;;;;5031764;28;20041;-68
2021/12/03 13:58:39;;;;;;;0.00;0.00;;;3.30;99.90;;;;;;5035079;28;20036;-68
2021/12/03 14:19:57;;;;;;;0.00;0.00;;;3.20;99.90;;;;;;5034722;28;20021;-68
2021/12/03 14:44:53;;;;;;;0.00;0.00;;;3.30;99.90;;;;;;5053837;28;20119;-68
2021/12/03 14:53:10;;;;;;;0.00;0.00;;;3.30;99.90;;;;;;5054037;28;20059;-68
2021/12/03 14:55:36;;;;;;;0.00;0.00;;;3.30;99.90;;;;;;5053826;28;20025;-68
2021/12/03 14:58:12;;;;;;;0.00;0.00;;;3.30;99.90;;;;;;5053867;28;20028;-68
2021/12/03 15:06:02;;;;;;;0.00;0.00;;;3.20;99.90;;;;;;5053783;28;20040;-68
2021/12/03 15:08:48;;;;;;;0.00;0.00;;;3.20;99.90;;;;;;5053717;28;20025;-68
2021/12/03 15:17:43;;;;;;;0.00;0.00;;;3.20;99.90;;;;;;5033835;28;20045;-68
2021/12/03 15:22:49;;;;;;;0.00;0.00;;;3.10;99.90;;;;;;5032973;28;20036;-68
2021/12/03 15:33:12;;;;;;;0.00;0.00;;;3.10;99.90;;;;;;5033318;28;20400;-68
2021/12/03 15:35:57;;;;;;;0.00;0.00;;;3.00;99.90;;;;;;5049118;28;20055;-69
2021/12/03 15:41:30;;;;;;;0.00;0.00;;;3.00;99.90;;;;;;5051994;28;20037;-69
2021/12/03 16:08:24;;;;;;;0.00;0.00;;;2.90;99.90;;;;;;5032793;28;20036;-69
2021/12/03 16:11:09;;;;;;;;;;;2.80;99.90;;;;;;5032437;28;20048;-68
2021/12/03 16:16:44;;;;;;;;;;;2.90;99.90;;;;;;5032802;28;20083;-68
2021/12/03 16:21:52;;;;;;;0.00;0.00;;;2.90;99.90;;;;;;5031615;28;20029;-68
2021/12/03 16:51:26;;;;;;;0.00;0.00;;;2.90;99.90;;;;;;5050686;28;20021;-70
2021/12/03 16:53:55;;;;;;;0.00;0.00;;;2.90;99.90;;;;;;5051552;28;20033;-69
2021/12/03 16:56:26;;;;;;;0.00;0.00;;;2.90;99.90;;;;;;5037232;28;20480;-68
2021/12/03 16:58:54;;;;;;;0.00;0.00;;;3.00;99.90;;;;;;5035883;28;20056;-69
2021/12/03 17:01:31;;;;;;;0.00;0.00;;;2.90;99.90;;;;;;5042736;28;20108;-69
2021/12/03 17:04:05;;;;;;;0.00;0.00;;;2.90;99.90;;;;;;5038246;28;20036;-69
2021/12/03 17:09:34;;;;;;;0.00;0.00;;;2.80;99.90;;;;;;5035716;28;20055;-69
2021/12/03 17:26:09;;;;;;;0.00;0.00;;;2.60;99.90;;;;;;5035809;28;20439;-69
2021/12/03 17:49:51;;;;;;;0.00;0.00;;;2.90;99.90;;;;;;5034911;28;20045;-68
2021/12/03 18:00:14;;;;;;;0.00;0.00;;;2.90;99.90;;;;;;5034269;28;20136;-69
2021/12/03 18:02:46;;;;;;;0.00;0.00;;;2.90;99.90;;;;;;5033892;28;20143;-70
2021/12/03 18:13:21;;;;;;;0.00;0.00;;;2.90;99.90;;;;;;5049231;28;20170;-70
2021/12/03 18:46:29;;;;;;;;;;;2.90;99.90;;;;;;5028930;28;20507;-69
2021/12/03 18:51:47;;;;;;;0.00;0.00;;;3.10;99.90;;;;;;5030914;28;20025;-69
2021/12/03 18:56:56;;;;;;;0.00;0.00;;;3.10;99.90;;;;;;5031299;28;20038;-69
2021/12/03 18:59:25;;;;;;;0.00;0.00;;;3.20;99.90;;;;;;5031669;28;20044;-69
2021/12/03 19:01:51;;;;;;;0.00;0.00;;;3.20;99.90;;;;;;5032604;28;20041;-69
2021/12/03 19:04:30;;;;;;;0.00;0.00;;;3.20;99.90;;;;;;5031579;28;20044;-69
2021/12/03 19:07:04;;;;;;;0.00;0.00;;;3.20;99.90;;;;;;5034892;28;20048;-69
2021/12/03 19:09:38;;;;;;;0.00;0.00;;;3.20;99.90;;;;;;5042727;28;20030;-69
2021/12/03 19:12:10;;;;;;;0.00;0.00;;;3.20;99.90;;;;;;5030525;28;20037;-69
2021/12/03 19:14:39;;;;;;;0.00;0.00;;;3.10;99.90;;;;;;5035618;28;20124;-69
2021/12/03 19:17:08;;;;;;;0.00;0.00;;;3.00;99.90;;;;;;5030757;28;20076;-69
2021/12/03 19:19:38;;;;;;;0.00;0.00;;;3.00;99.90;;;;;;5030054;28;20042;-69
2021/12/03 19:22:04;;;;;;;0.00;0.00;;;2.90;99.90;;;;;;5030188;28;20499;-69
2021/12/03 19:24:31;;;;;;;0.00;0.00;;;2.90;99.90;;;;;;5030917;28;20124;-70
2021/12/03 19:26:57;;;;;;;0.00;0.00;;;2.90;99.90;;;;;;5030280;28;20039;-69
2021/12/03 19:29:23;;;;;;;0.00;0.00;;;2.80;99.90;;;;;;5030010;28;20140;-69
2021/12/03 19:31:51;;;;;;;0.00;0.00;;;2.80;99.90;;;;;;5029820;28;20034;-69
2021/12/03 19:34:18;;;;;;;0.00;0.00;;;2.80;99.90;;;;;;5029314;28;20172;-70
2021/12/03 19:36:45;;;;;;;0.00;0.00;;;2.90;99.90;;;;;;5023704;28;20415;-69
2021/12/03 19:39:14;;;;;;;0.00;0.00;;;2.80;99.90;;;;;;5027408;28;20056;-70
2021/12/03 19:41:57;;;;;;;0.00;0.00;;;2.80;99.90;;;;;;5027513;28;20044;-70
2021/12/03 19:44:33;;;;;;;0.00;0.00;;;2.90;99.90;;;;;;5029874;28;20374;-69
2021/12/03 19:46:58;;;;;;;0.00;0.00;;;2.90;99.90;;;;;;5028663;28;20137;-70
2021/12/03 19:51:56;;;;;;;0.00;0.00;;;2.90;99.90;;;;;;5026796;28;20025;-69
2021/12/03 19:54:23;;;;;;;0.00;0.00;;;2.90;99.90;;;;;;5029368;28;20068;-70
2021/12/03 19:56:50;;;;;;;0.00;0.00;;;2.90;99.90;;;;;;5028314;28;20039;-70
2021/12/03 19:59:17;;;;;;;0.00;0.00;;;2.90;99.90;;;;;;5036627;28;20033;-69
2021/12/03 20:01:44;;;;;;;0.00;0.00;;;2.90;99.90;;;;;;5024018;28;20504;-69